sensor_id;sensor_type;location;lat;lon;timestamp;P1;durP1;ratioP1;P2;durP2;ratioP2
8640;SDS011;4358;42.100;25.222;2022-11-15T00:01:15;10.70;;;4.97;;
8640;SDS011;4358;42.100;25.222;2022-11-15T00:03:43;9.07;;;5.00;;
8640;SDS011;4358;42.100;25.222;2022-11-15T00:06:11;10.07;;;3.83;;
8640;SDS011;4358;42.100;25.222;2022-11-15T00:08:38;12.27;;;5.00;;
8640;SDS011;4358;42.100;25.222;2022-11-15T00:11:06;12.17;;;5.30;;
8640;SDS011;4358;42.100;25.222;2022-11-15T00:13:35;10.47;;;4.87;;
8640;SDS011;4358;42.100;25.222;2022-11-15T00:16:02;16.20;;;6.00;;
8640;SDS011;4358;42.100;25.222;2022-11-15T00:18:30;17.30;;;6.13;;
8640;SDS011;4358;42.100;25.222;2022-11-15T00:21:02;8.30;;;4.67;;
8640;SDS011;4358;42.100;25.222;2022-11-15T00:23:31;11.57;;;5.37;;
8640;SDS011;4358;42.100;25.222;2022-11-15T00:25:58;10.10;;;4.90;;
8640;SDS011;4358;42.100;25.222;2022-11-15T00:28:26;14.87;;;5.33;;
8640;SDS011;4358;42.100;25.222;2022-11-15T00:30:53;9.30;;;4.53;;
8640;SDS011;4358;42.100;25.222;2022-11-15T00:33:20;11.20;;;5.03;;
8640;SDS011;4358;42.100;25.222;2022-11-15T00:35:47;13.40;;;5.57;;
8640;SDS011;4358;42.100;25.222;2022-11-15T00:38:14;11.63;;;5.17;;
8640;SDS011;4358;42.100;25.222;2022-11-15T00:40:41;11.07;;;4.87;;
8640;SDS011;4358;42.100;25.222;2022-11-15T00:43:08;9.37;;;4.97;;
8640;SDS011;4358;42.100;25.222;2022-11-15T00:45:36;12.13;;;5.47;;
8640;SDS011;4358;42.100;25.222;2022-11-15T00:48:03;15.10;;;5.60;;
8640;SDS011;4358;42.100;25.222;2022-11-15T00:50:30;14.07;;;4.77;;
8640;SDS011;4358;42.100;25.222;2022-11-15T00:52:57;14.83;;;6.03;;
8640;SDS011;4358;42.100;25.222;2022-11-15T00:55:24;12.30;;;4.37;;
8640;SDS011;4358;42.100;25.222;2022-11-15T00:57:51;14.10;;;5.80;;
8640;SDS011;4358;42.100;25.222;2022-11-15T01:00:17;12.57;;;6.17;;
8640;SDS011;4358;42.100;25.222;2022-11-15T01:02:46;12.83;;;5.23;;
8640;SDS011;4358;42.100;25.222;2022-11-15T01:05:13;13.43;;;5.53;;
8640;SDS011;4358;42.100;25.222;2022-11-15T01:07:39;13.90;;;4.77;;
8640;SDS011;4358;42.100;25.222;2022-11-15T01:10:07;14.43;;;5.27;;
8640;SDS011;4358;42.100;25.222;2022-11-15T01:12:34;17.07;;;6.07;;
8640;SDS011;4358;42.100;25.222;2022-11-15T01:15:01;14.43;;;5.03;;
8640;SDS011;4358;42.100;25.222;2022-11-15T01:17:28;11.87;;;4.27;;
8640;SDS011;4358;42.100;25.222;2022-11-15T01:19:58;15.43;;;5.37;;
8640;SDS011;4358;42.100;25.222;2022-11-15T01:22:25;11.97;;;4.87;;
8640;SDS011;4358;42.100;25.222;2022-11-15T01:24:52;17.83;;;5.30;;
8640;SDS011;4358;42.100;25.222;2022-11-15T01:27:19;16.87;;;4.83;;
8640;SDS011;4358;42.100;25.222;2022-11-15T01:29:45;10.23;;;5.00;;
8640;SDS011;4358;42.100;25.222;2022-11-15T01:32:12;14.60;;;5.40;;
8640;SDS011;4358;42.100;25.222;2022-11-15T01:34:39;11.30;;;5.27;;
8640;SDS011;4358;42.100;25.222;2022-11-15T01:37:07;13.53;;;4.87;;
8640;SDS011;4358;42.100;25.222;2022-11-15T01:39:34;10.87;;;5.20;;
8640;SDS011;4358;42.100;25.222;2022-11-15T01:42:01;10.60;;;5.30;;
8640;SDS011;4358;42.100;25.222;2022-11-15T01:44:31;15.00;;;5.10;;
8640;SDS011;4358;42.100;25.222;2022-11-15T01:47:11;13.13;;;5.57;;
8640;SDS011;4358;42.100;25.222;2022-11-15T01:49:43;20.27;;;5.07;;
8640;SDS011;4358;42.100;25.222;2022-11-15T01:52:19;11.60;;;5.33;;
8640;SDS011;4358;42.100;25.222;2022-11-15T01:54:48;9.03;;;3.83;;
8640;SDS011;4358;42.100;25.222;2022-11-15T01:57:19;12.13;;;5.13;;
8640;SDS011;4358;42.100;25.222;2022-11-15T01:59:46;21.10;;;4.67;;
8640;SDS011;4358;42.100;25.222;2022-11-15T02:02:13;19.07;;;5.27;;
8640;SDS011;4358;42.100;25.222;2022-11-15T02:04:41;12.67;;;5.00;;
8640;SDS011;4358;42.100;25.222;2022-11-15T02:07:10;8.83;;;4.60;;
8640;SDS011;4358;42.100;25.222;2022-11-15T02:09:42;12.50;;;4.20;;
8640;SDS011;4358;42.100;25.222;2022-11-15T02:12:10;9.47;;;4.23;;
8640;SDS011;4358;42.100;25.222;2022-11-15T02:14:41;10.47;;;4.73;;
8640;SDS011;4358;42.100;25.222;2022-11-15T02:17:15;12.13;;;3.70;;
8640;SDS011;4358;42.100;25.222;2022-11-15T02:20:04;11.87;;;4.53;;
8640;SDS011;4358;42.100;25.222;2022-11-15T02:22:51;11.60;;;3.60;;
8640;SDS011;4358;42.100;25.222;2022-11-15T02:25:45;14.13;;;4.43;;
8640;SDS011;4358;42.100;25.222;2022-11-15T02:28:37;10.37;;;3.73;;
8640;SDS011;4358;42.100;25.222;2022-11-15T02:31:13;12.90;;;4.30;;
8640;SDS011;4358;42.100;25.222;2022-11-15T02:33:49;9.80;;;3.90;;
8640;SDS011;4358;42.100;25.222;2022-11-15T02:36:28;13.40;;;4.63;;
8640;SDS011;4358;42.100;25.222;2022-11-15T02:39:03;8.50;;;3.77;;
8640;SDS011;4358;42.100;25.222;2022-11-15T02:41:39;12.50;;;4.13;;
8640;SDS011;4358;42.100;25.222;2022-11-15T02:44:14;10.97;;;4.07;;
8640;SDS011;4358;42.100;25.222;2022-11-15T02:46:49;10.40;;;4.13;;
8640;SDS011;4358;42.100;25.222;2022-11-15T02:49:37;10.03;;;4.17;;
8640;SDS011;4358;42.100;25.222;2022-11-15T02:52:07;11.83;;;4.93;;
8640;SDS011;4358;42.100;25.222;2022-11-15T02:54:34;11.40;;;4.37;;
8640;SDS011;4358;42.100;25.222;2022-11-15T02:57:02;9.63;;;3.97;;
8640;SDS011;4358;42.100;25.222;2022-11-15T02:59:40;10.80;;;4.03;;
8640;SDS011;4358;42.100;25.222;2022-11-15T03:02:22;6.63;;;3.73;;
8640;SDS011;4358;42.100;25.222;2022-11-15T03:05:01;8.50;;;4.20;;
8640;SDS011;4358;42.100;25.222;2022-11-15T03:07:35;8.60;;;4.13;;
8640;SDS011;4358;42.100;25.222;2022-11-15T03:10:08;8.93;;;4.20;;
8640;SDS011;4358;42.100;25.222;2022-11-15T03:12:43;14.00;;;4.10;;
8640;SDS011;4358;42.100;25.222;2022-11-15T03:15:16;10.00;;;4.23;;
8640;SDS011;4358;42.100;25.222;2022-11-15T03:17:50;9.33;;;4.53;;
8640;SDS011;4358;42.100;25.222;2022-11-15T03:20:22;13.00;;;4.90;;
8640;SDS011;4358;42.100;25.222;2022-11-15T03:22:52;8.70;;;4.30;;
8640;SDS011;4358;42.100;25.222;2022-11-15T03:25:23;11.80;;;5.30;;
8640;SDS011;4358;42.100;25.222;2022-11-15T03:27:53;11.10;;;5.20;;
8640;SDS011;4358;42.100;25.222;2022-11-15T03:30:23;10.20;;;4.80;;
8640;SDS011;4358;42.100;25.222;2022-11-15T03:32:53;12.30;;;4.73;;
8640;SDS011;4358;42.100;25.222;2022-11-15T03:35:22;11.77;;;5.40;;
8640;SDS011;4358;42.100;25.222;2022-11-15T03:37:52;9.80;;;5.57;;
8640;SDS011;4358;42.100;25.222;2022-11-15T03:40:25;10.73;;;4.90;;
8640;SDS011;4358;42.100;25.222;2022-11-15T03:43:02;11.87;;;5.23;;
8640;SDS011;4358;42.100;25.222;2022-11-15T03:45:36;8.77;;;5.23;;
8640;SDS011;4358;42.100;25.222;2022-11-15T03:48:12;12.00;;;5.43;;
8640;SDS011;4358;42.100;25.222;2022-11-15T03:50:41;8.27;;;4.57;;
8640;SDS011;4358;42.100;25.222;2022-11-15T03:53:09;8.27;;;4.73;;
8640;SDS011;4358;42.100;25.222;2022-11-15T03:55:36;11.03;;;5.47;;
8640;SDS011;4358;42.100;25.222;2022-11-15T03:58:03;10.60;;;5.87;;
8640;SDS011;4358;42.100;25.222;2022-11-15T04:00:30;10.33;;;5.77;;
8640;SDS011;4358;42.100;25.222;2022-11-15T04:02:57;9.37;;;5.77;;
8640;SDS011;4358;42.100;25.222;2022-11-15T04:05:25;10.83;;;6.03;;
8640;SDS011;4358;42.100;25.222;2022-11-15T04:07:52;13.03;;;6.03;;
8640;SDS011;4358;42.100;25.222;2022-11-15T04:10:18;12.10;;;6.30;;
8640;SDS011;4358;42.100;25.222;2022-11-15T04:12:45;12.70;;;6.40;;
8640;SDS011;4358;42.100;25.222;2022-11-15T04:15:13;11.57;;;6.43;;
8640;SDS011;4358;42.100;25.222;2022-11-15T04:17:42;10.23;;;6.00;;
8640;SDS011;4358;42.100;25.222;2022-11-15T04:20:12;11.63;;;5.80;;
8640;SDS011;4358;42.100;25.222;2022-11-15T04:23:00;10.33;;;5.27;;
8640;SDS011;4358;42.100;25.222;2022-11-15T04:25:45;11.37;;;5.03;;
8640;SDS011;4358;42.100;25.222;2022-11-15T04:28:13;12.07;;;5.13;;
8640;SDS011;4358;42.100;25.222;2022-11-15T04:30:40;11.90;;;5.13;;
8640;SDS011;4358;42.100;25.222;2022-11-15T04:33:07;8.10;;;5.17;;
8640;SDS011;4358;42.100;25.222;2022-11-15T04:35:34;7.83;;;4.63;;
8640;SDS011;4358;42.100;25.222;2022-11-15T04:38:03;11.00;;;5.67;;
8640;SDS011;4358;42.100;25.222;2022-11-15T04:40:30;10.17;;;5.87;;
8640;SDS011;4358;42.100;25.222;2022-11-15T04:42:56;10.30;;;5.27;;
8640;SDS011;4358;42.100;25.222;2022-11-15T04:45:23;11.87;;;5.13;;
8640;SDS011;4358;42.100;25.222;2022-11-15T04:47:50;8.40;;;4.23;;
8640;SDS011;4358;42.100;25.222;2022-11-15T04:50:17;11.50;;;5.10;;
8640;SDS011;4358;42.100;25.222;2022-11-15T04:52:49;10.63;;;4.90;;
8640;SDS011;4358;42.100;25.222;2022-11-15T04:55:19;8.47;;;4.50;;
8640;SDS011;4358;42.100;25.222;2022-11-15T04:57:46;10.87;;;4.93;;
8640;SDS011;4358;42.100;25.222;2022-11-15T05:00:14;9.37;;;4.20;;
8640;SDS011;4358;42.100;25.222;2022-11-15T05:02:42;7.90;;;5.30;;
8640;SDS011;4358;42.100;25.222;2022-11-15T05:05:26;9.30;;;5.23;;
8640;SDS011;4358;42.100;25.222;2022-11-15T05:07:53;9.77;;;4.80;;
8640;SDS011;4358;42.100;25.222;2022-11-15T05:10:22;11.33;;;5.37;;
8640;SDS011;4358;42.100;25.222;2022-11-15T05:12:48;10.80;;;5.53;;
8640;SDS011;4358;42.100;25.222;2022-11-15T05:15:15;13.77;;;6.60;;
8640;SDS011;4358;42.100;25.222;2022-11-15T05:17:42;14.57;;;7.07;;
8640;SDS011;4358;42.100;25.222;2022-11-15T05:20:09;12.60;;;4.97;;
8640;SDS011;4358;42.100;25.222;2022-11-15T05:22:37;8.77;;;5.13;;
8640;SDS011;4358;42.100;25.222;2022-11-15T05:25:05;12.43;;;5.50;;
8640;SDS011;4358;42.100;25.222;2022-11-15T05:27:34;14.37;;;6.13;;
8640;SDS011;4358;42.100;25.222;2022-11-15T05:30:01;13.73;;;5.70;;
8640;SDS011;4358;42.100;25.222;2022-11-15T05:32:28;11.53;;;6.63;;
8640;SDS011;4358;42.100;25.222;2022-11-15T05:34:55;14.10;;;6.07;;
8640;SDS011;4358;42.100;25.222;2022-11-15T05:37:22;16.37;;;5.93;;
8640;SDS011;4358;42.100;25.222;2022-11-15T05:39:49;9.53;;;4.90;;
8640;SDS011;4358;42.100;25.222;2022-11-15T05:42:16;12.90;;;5.20;;
8640;SDS011;4358;42.100;25.222;2022-11-15T05:44:46;11.70;;;5.80;;
8640;SDS011;4358;42.100;25.222;2022-11-15T05:47:15;15.83;;;5.43;;
8640;SDS011;4358;42.100;25.222;2022-11-15T05:49:46;12.13;;;5.30;;
8640;SDS011;4358;42.100;25.222;2022-11-15T05:52:15;10.20;;;5.27;;
8640;SDS011;4358;42.100;25.222;2022-11-15T05:54:45;17.03;;;7.37;;
8640;SDS011;4358;42.100;25.222;2022-11-15T05:57:12;9.30;;;4.63;;
8640;SDS011;4358;42.100;25.222;2022-11-15T05:59:39;18.23;;;6.03;;
8640;SDS011;4358;42.100;25.222;2022-11-15T06:02:10;10.43;;;5.10;;
8640;SDS011;4358;42.100;25.222;2022-11-15T06:04:37;16.37;;;6.20;;
8640;SDS011;4358;42.100;25.222;2022-11-15T06:07:03;14.50;;;5.33;;
8640;SDS011;4358;42.100;25.222;2022-11-15T06:09:30;14.80;;;5.23;;
8640;SDS011;4358;42.100;25.222;2022-11-15T06:11:57;10.23;;;4.60;;
8640;SDS011;4358;42.100;25.222;2022-11-15T06:14:24;13.47;;;4.67;;
8640;SDS011;4358;42.100;25.222;2022-11-15T06:16:51;17.63;;;4.80;;
8640;SDS011;4358;42.100;25.222;2022-11-15T06:19:19;17.00;;;5.50;;
8640;SDS011;4358;42.100;25.222;2022-11-15T06:21:46;14.67;;;6.13;;
8640;SDS011;4358;42.100;25.222;2022-11-15T06:24:12;9.97;;;4.93;;
8640;SDS011;4358;42.100;25.222;2022-11-15T06:26:39;10.30;;;4.40;;
8640;SDS011;4358;42.100;25.222;2022-11-15T06:29:06;15.07;;;4.80;;
8640;SDS011;4358;42.100;25.222;2022-11-15T06:31:33;14.37;;;5.97;;
8640;SDS011;4358;42.100;25.222;2022-11-15T06:34:00;9.07;;;5.13;;
8640;SDS011;4358;42.100;25.222;2022-11-15T06:36:28;13.70;;;5.37;;
8640;SDS011;4358;42.100;25.222;2022-11-15T06:38:56;11.93;;;5.07;;
8640;SDS011;4358;42.100;25.222;2022-11-15T06:41:23;13.20;;;5.53;;
8640;SDS011;4358;42.100;25.222;2022-11-15T06:43:50;17.13;;;5.90;;
8640;SDS011;4358;42.100;25.222;2022-11-15T06:46:17;13.73;;;6.07;;
8640;SDS011;4358;42.100;25.222;2022-11-15T06:48:44;11.43;;;5.00;;
8640;SDS011;4358;42.100;25.222;2022-11-15T06:51:11;12.43;;;5.73;;
8640;SDS011;4358;42.100;25.222;2022-11-15T06:53:39;11.17;;;5.07;;
8640;SDS011;4358;42.100;25.222;2022-11-15T06:56:06;16.03;;;5.77;;
8640;SDS011;4358;42.100;25.222;2022-11-15T06:58:34;12.60;;;5.13;;
8640;SDS011;4358;42.100;25.222;2022-11-15T07:01:02;11.77;;;5.37;;
8640;SDS011;4358;42.100;25.222;2022-11-15T07:03:30;10.37;;;5.20;;
8640;SDS011;4358;42.100;25.222;2022-11-15T07:05:58;11.73;;;5.70;;
8640;SDS011;4358;42.100;25.222;2022-11-15T07:08:26;12.73;;;5.43;;
8640;SDS011;4358;42.100;25.222;2022-11-15T07:10:58;13.27;;;5.00;;
8640;SDS011;4358;42.100;25.222;2022-11-15T07:13:27;9.60;;;5.00;;
8640;SDS011;4358;42.100;25.222;2022-11-15T07:15:58;9.30;;;4.37;;
8640;SDS011;4358;42.100;25.222;2022-11-15T07:18:27;10.67;;;4.73;;
8640;SDS011;4358;42.100;25.222;2022-11-15T07:20:55;12.23;;;4.77;;
8640;SDS011;4358;42.100;25.222;2022-11-15T07:23:21;12.60;;;5.63;;
8640;SDS011;4358;42.100;25.222;2022-11-15T07:25:48;11.40;;;5.37;;
8640;SDS011;4358;42.100;25.222;2022-11-15T07:28:16;11.07;;;5.37;;
8640;SDS011;4358;42.100;25.222;2022-11-15T07:30:43;10.33;;;4.87;;
8640;SDS011;4358;42.100;25.222;2022-11-15T07:33:10;14.23;;;5.13;;
8640;SDS011;4358;42.100;25.222;2022-11-15T07:35:37;11.30;;;4.50;;
8640;SDS011;4358;42.100;25.222;2022-11-15T07:38:04;10.80;;;5.33;;
8640;SDS011;4358;42.100;25.222;2022-11-15T07:40:31;9.73;;;4.77;;
8640;SDS011;4358;42.100;25.222;2022-11-15T07:42:58;12.17;;;5.33;;
8640;SDS011;4358;42.100;25.222;2022-11-15T07:45:27;10.40;;;4.73;;
8640;SDS011;4358;42.100;25.222;2022-11-15T07:47:55;10.57;;;5.30;;
8640;SDS011;4358;42.100;25.222;2022-11-15T07:50:22;9.80;;;4.67;;
8640;SDS011;4358;42.100;25.222;2022-11-15T07:52:53;8.47;;;4.70;;
8640;SDS011;4358;42.100;25.222;2022-11-15T07:55:21;8.53;;;4.50;;
8640;SDS011;4358;42.100;25.222;2022-11-15T07:57:48;7.53;;;4.87;;
8640;SDS011;4358;42.100;25.222;2022-11-15T08:00:15;9.60;;;4.53;;
8640;SDS011;4358;42.100;25.222;2022-11-15T08:02:45;8.17;;;4.70;;
8640;SDS011;4358;42.100;25.222;2022-11-15T08:05:12;7.57;;;4.17;;
8640;SDS011;4358;42.100;25.222;2022-11-15T08:07:39;7.40;;;4.33;;
8640;SDS011;4358;42.100;25.222;2022-11-15T08:10:07;10.47;;;4.80;;
8640;SDS011;4358;42.100;25.222;2022-11-15T08:12:34;8.57;;;4.37;;
8640;SDS011;4358;42.100;25.222;2022-11-15T08:15:01;11.30;;;4.10;;
8640;SDS011;4358;42.100;25.222;2022-11-15T08:17:28;7.93;;;4.17;;
8640;SDS011;4358;42.100;25.222;2022-11-15T08:19:59;8.17;;;4.53;;
8640;SDS011;4358;42.100;25.222;2022-11-15T08:22:26;8.10;;;4.53;;
8640;SDS011;4358;42.100;25.222;2022-11-15T08:24:53;6.50;;;4.40;;
8640;SDS011;4358;42.100;25.222;2022-11-15T08:27:20;6.27;;;4.50;;
8640;SDS011;4358;42.100;25.222;2022-11-15T08:29:47;7.70;;;4.03;;
8640;SDS011;4358;42.100;25.222;2022-11-15T08:32:15;8.00;;;4.37;;
8640;SDS011;4358;42.100;25.222;2022-11-15T08:34:43;7.20;;;4.30;;
8640;SDS011;4358;42.100;25.222;2022-11-15T08:37:11;7.57;;;4.30;;
8640;SDS011;4358;42.100;25.222;2022-11-15T08:39:38;9.03;;;4.60;;
8640;SDS011;4358;42.100;25.222;2022-11-15T08:42:05;8.70;;;4.53;;
8640;SDS011;4358;42.100;25.222;2022-11-15T08:44:32;8.37;;;4.17;;
8640;SDS011;4358;42.100;25.222;2022-11-15T08:46:58;7.47;;;3.80;;
8640;SDS011;4358;42.100;25.222;2022-11-15T08:49:25;9.20;;;4.10;;
8640;SDS011;4358;42.100;25.222;2022-11-15T08:51:52;11.23;;;6.07;;
8640;SDS011;4358;42.100;25.222;2022-11-15T08:54:20;7.13;;;4.43;;
8640;SDS011;4358;42.100;25.222;2022-11-15T08:56:47;8.00;;;4.77;;
8640;SDS011;4358;42.100;25.222;2022-11-15T08:59:14;7.43;;;4.47;;
8640;SDS011;4358;42.100;25.222;2022-11-15T09:01:41;7.77;;;4.23;;
8640;SDS011;4358;42.100;25.222;2022-11-15T09:04:07;9.67;;;5.57;;
8640;SDS011;4358;42.100;25.222;2022-11-15T09:06:34;8.17;;;3.83;;
8640;SDS011;4358;42.100;25.222;2022-11-15T09:09:01;6.80;;;4.47;;
8640;SDS011;4358;42.100;25.222;2022-11-15T09:11:30;7.13;;;4.23;;
8640;SDS011;4358;42.100;25.222;2022-11-15T09:13:57;7.43;;;4.40;;
8640;SDS011;4358;42.100;25.222;2022-11-15T09:16:24;9.07;;;4.17;;
8640;SDS011;4358;42.100;25.222;2022-11-15T09:18:51;7.83;;;4.47;;
8640;SDS011;4358;42.100;25.222;2022-11-15T09:21:19;7.40;;;4.83;;
8640;SDS011;4358;42.100;25.222;2022-11-15T09:23:46;7.40;;;4.67;;
8640;SDS011;4358;42.100;25.222;2022-11-15T09:26:13;7.63;;;4.37;;
8640;SDS011;4358;42.100;25.222;2022-11-15T09:28:41;6.47;;;4.43;;
8640;SDS011;4358;42.100;25.222;2022-11-15T09:31:08;9.53;;;4.93;;
8640;SDS011;4358;42.100;25.222;2022-11-15T09:33:35;6.73;;;4.63;;
8640;SDS011;4358;42.100;25.222;2022-11-15T09:36:02;8.73;;;5.20;;
8640;SDS011;4358;42.100;25.222;2022-11-15T09:38:31;10.53;;;5.33;;
8640;SDS011;4358;42.100;25.222;2022-11-15T09:41:08;8.90;;;5.00;;
8640;SDS011;4358;42.100;25.222;2022-11-15T09:43:50;8.80;;;5.07;;
8640;SDS011;4358;42.100;25.222;2022-11-15T09:46:30;7.00;;;4.63;;
8640;SDS011;4358;42.100;25.222;2022-11-15T09:49:04;8.30;;;5.10;;
8640;SDS011;4358;42.100;25.222;2022-11-15T09:51:33;8.20;;;5.07;;
8640;SDS011;4358;42.100;25.222;2022-11-15T09:54:13;7.53;;;4.63;;
8640;SDS011;4358;42.100;25.222;2022-11-15T09:56:48;5.80;;;4.43;;
8640;SDS011;4358;42.100;25.222;2022-11-15T10:02:19;9.50;;;5.13;;
8640;SDS011;4358;42.100;25.222;2022-11-15T10:04:59;7.50;;;5.07;;
8640;SDS011;4358;42.100;25.222;2022-11-15T10:07:30;12.23;;;5.40;;
8640;SDS011;4358;42.100;25.222;2022-11-15T10:10:09;9.13;;;5.50;;
8640;SDS011;4358;42.100;25.222;2022-11-15T10:12:43;8.97;;;6.27;;
8640;SDS011;4358;42.100;25.222;2022-11-15T10:15:16;9.03;;;5.83;;
8640;SDS011;4358;42.100;25.222;2022-11-15T10:20:46;8.10;;;5.33;;
8640;SDS011;4358;42.100;25.222;2022-11-15T10:23:15;9.87;;;6.20;;
8640;SDS011;4358;42.100;25.222;2022-11-15T10:25:44;10.03;;;6.77;;
8640;SDS011;4358;42.100;25.222;2022-11-15T10:28:13;8.47;;;6.40;;
8640;SDS011;4358;42.100;25.222;2022-11-15T10:30:44;8.93;;;6.00;;
8640;SDS011;4358;42.100;25.222;2022-11-15T10:33:17;7.20;;;5.33;;
8640;SDS011;4358;42.100;25.222;2022-11-15T10:35:51;9.20;;;5.83;;
8640;SDS011;4358;42.100;25.222;2022-11-15T10:41:31;9.47;;;5.97;;
8640;SDS011;4358;42.100;25.222;2022-11-15T10:44:02;9.73;;;5.63;;
8640;SDS011;4358;42.100;25.222;2022-11-15T10:46:38;8.50;;;5.40;;
8640;SDS011;4358;42.100;25.222;2022-11-15T10:49:12;11.90;;;7.00;;
8640;SDS011;4358;42.100;25.222;2022-11-15T10:51:41;8.90;;;6.40;;
8640;SDS011;4358;42.100;25.222;2022-11-15T10:54:11;9.07;;;6.37;;
8640;SDS011;4358;42.100;25.222;2022-11-15T10:56:39;7.07;;;5.40;;
8640;SDS011;4358;42.100;25.222;2022-11-15T10:59:13;10.93;;;7.23;;
8640;SDS011;4358;42.100;25.222;2022-11-15T11:01:46;11.70;;;7.20;;
8640;SDS011;4358;42.100;25.222;2022-11-15T11:04:14;12.27;;;7.23;;
8640;SDS011;4358;42.100;25.222;2022-11-15T11:06:47;10.73;;;7.63;;
8640;SDS011;4358;42.100;25.222;2022-11-15T11:09:22;10.93;;;6.67;;
8640;SDS011;4358;42.100;25.222;2022-11-15T11:11:54;9.23;;;6.10;;
8640;SDS011;4358;42.100;25.222;2022-11-15T11:14:23;9.43;;;6.30;;
8640;SDS011;4358;42.100;25.222;2022-11-15T11:16:54;10.00;;;6.27;;
8640;SDS011;4358;42.100;25.222;2022-11-15T11:19:33;9.37;;;6.63;;
8640;SDS011;4358;42.100;25.222;2022-11-15T11:22:09;11.53;;;6.53;;
8640;SDS011;4358;42.100;25.222;2022-11-15T11:24:45;8.10;;;5.77;;
8640;SDS011;4358;42.100;25.222;2022-11-15T11:27:23;10.50;;;6.37;;
8640;SDS011;4358;42.100;25.222;2022-11-15T11:30:06;12.60;;;6.27;;
8640;SDS011;4358;42.100;25.222;2022-11-15T11:32:47;9.90;;;6.73;;
8640;SDS011;4358;42.100;25.222;2022-11-15T11:35:22;10.40;;;7.10;;
8640;SDS011;4358;42.100;25.222;2022-11-15T11:37:58;9.40;;;6.57;;
8640;SDS011;4358;42.100;25.222;2022-11-15T11:40:43;10.53;;;6.67;;
8640;SDS011;4358;42.100;25.222;2022-11-15T11:43:18;10.40;;;6.63;;
8640;SDS011;4358;42.100;25.222;2022-11-15T11:46:00;8.93;;;5.80;;
8640;SDS011;4358;42.100;25.222;2022-11-15T11:48:50;8.30;;;6.47;;
8640;SDS011;4358;42.100;25.222;2022-11-15T11:51:24;12.10;;;7.10;;
8640;SDS011;4358;42.100;25.222;2022-11-15T11:53:57;6.80;;;5.50;;
8640;SDS011;4358;42.100;25.222;2022-11-15T11:56:31;11.00;;;6.63;;
8640;SDS011;4358;42.100;25.222;2022-11-15T11:59:00;8.63;;;6.27;;
8640;SDS011;4358;42.100;25.222;2022-11-15T12:01:33;11.33;;;6.73;;
8640;SDS011;4358;42.100;25.222;2022-11-15T12:04:05;12.70;;;6.67;;
8640;SDS011;4358;42.100;25.222;2022-11-15T12:06:41;8.83;;;5.97;;
8640;SDS011;4358;42.100;25.222;2022-11-15T12:09:12;9.33;;;6.97;;
8640;SDS011;4358;42.100;25.222;2022-11-15T12:11:47;9.83;;;7.27;;
8640;SDS011;4358;42.100;25.222;2022-11-15T12:14:22;10.07;;;6.63;;
8640;SDS011;4358;42.100;25.222;2022-11-15T12:16:54;9.07;;;6.87;;
8640;SDS011;4358;42.100;25.222;2022-11-15T12:19:23;7.57;;;5.60;;
8640;SDS011;4358;42.100;25.222;2022-11-15T12:21:52;9.67;;;6.53;;
8640;SDS011;4358;42.100;25.222;2022-11-15T12:24:26;10.47;;;6.73;;
8640;SDS011;4358;42.100;25.222;2022-11-15T12:26:57;11.03;;;7.40;;
8640;SDS011;4358;42.100;25.222;2022-11-15T12:29:28;9.63;;;6.80;;
8640;SDS011;4358;42.100;25.222;2022-11-15T12:32:02;8.87;;;6.43;;
8640;SDS011;4358;42.100;25.222;2022-11-15T12:37:34;8.67;;;5.87;;
8640;SDS011;4358;42.100;25.222;2022-11-15T12:40:19;6.50;;;5.03;;
8640;SDS011;4358;42.100;25.222;2022-11-15T12:43:02;8.10;;;5.63;;
8640;SDS011;4358;42.100;25.222;2022-11-15T12:45:32;8.60;;;5.93;;
8640;SDS011;4358;42.100;25.222;2022-11-15T12:51:13;7.67;;;5.17;;
8640;SDS011;4358;42.100;25.222;2022-11-15T12:53:40;8.33;;;5.67;;
8640;SDS011;4358;42.100;25.222;2022-11-15T12:58:51;8.17;;;5.57;;
8640;SDS011;4358;42.100;25.222;2022-11-15T13:04:26;8.90;;;5.90;;
8640;SDS011;4358;42.100;25.222;2022-11-15T13:06:57;9.27;;;6.13;;
8640;SDS011;4358;42.100;25.222;2022-11-15T13:15:36;8.33;;;6.10;;
8640;SDS011;4358;42.100;25.222;2022-11-15T13:18:37;6.47;;;5.07;;
8640;SDS011;4358;42.100;25.222;2022-11-15T13:21:19;6.93;;;5.43;;
8640;SDS011;4358;42.100;25.222;2022-11-15T13:24:11;8.23;;;5.57;;
8640;SDS011;4358;42.100;25.222;2022-11-15T13:26:39;8.13;;;5.93;;
8640;SDS011;4358;42.100;25.222;2022-11-15T13:29:14;7.27;;;5.47;;
8640;SDS011;4358;42.100;25.222;2022-11-15T13:31:43;8.60;;;5.73;;
8640;SDS011;4358;42.100;25.222;2022-11-15T13:37:01;8.40;;;5.53;;
8640;SDS011;4358;42.100;25.222;2022-11-15T13:39:30;10.40;;;6.27;;
8640;SDS011;4358;42.100;25.222;2022-11-15T13:41:59;8.13;;;5.07;;
8640;SDS011;4358;42.100;25.222;2022-11-15T13:44:26;8.63;;;5.93;;
8640;SDS011;4358;42.100;25.222;2022-11-15T13:47:01;9.53;;;6.00;;
8640;SDS011;4358;42.100;25.222;2022-11-15T13:49:30;8.70;;;6.30;;
8640;SDS011;4358;42.100;25.222;2022-11-15T13:51:58;9.17;;;5.53;;
8640;SDS011;4358;42.100;25.222;2022-11-15T13:54:27;11.20;;;7.00;;
8640;SDS011;4358;42.100;25.222;2022-11-15T13:57:00;8.47;;;6.50;;
8640;SDS011;4358;42.100;25.222;2022-11-15T13:59:44;9.03;;;6.53;;
8640;SDS011;4358;42.100;25.222;2022-11-15T14:02:13;7.50;;;5.20;;
8640;SDS011;4358;42.100;25.222;2022-11-15T14:04:45;7.03;;;5.87;;
8640;SDS011;4358;42.100;25.222;2022-11-15T14:07:16;8.43;;;5.93;;
8640;SDS011;4358;42.100;25.222;2022-11-15T14:09:46;9.40;;;6.10;;
8640;SDS011;4358;42.100;25.222;2022-11-15T14:12:22;11.93;;;7.13;;
8640;SDS011;4358;42.100;25.222;2022-11-15T14:14:59;8.40;;;5.23;;
8640;SDS011;4358;42.100;25.222;2022-11-15T14:17:44;12.83;;;6.77;;
8640;SDS011;4358;42.100;25.222;2022-11-15T14:22:58;8.13;;;5.93;;
8640;SDS011;4358;42.100;25.222;2022-11-15T14:25:28;9.00;;;5.80;;
8640;SDS011;4358;42.100;25.222;2022-11-15T14:28:09;10.00;;;6.43;;
8640;SDS011;4358;42.100;25.222;2022-11-15T14:30:41;8.67;;;5.60;;
8640;SDS011;4358;42.100;25.222;2022-11-15T14:33:18;9.67;;;5.60;;
8640;SDS011;4358;42.100;25.222;2022-11-15T14:35:47;9.20;;;5.37;;
8640;SDS011;4358;42.100;25.222;2022-11-15T14:38:14;10.97;;;6.17;;
8640;SDS011;4358;42.100;25.222;2022-11-15T14:40:43;10.30;;;5.70;;
8640;SDS011;4358;42.100;25.222;2022-11-15T14:43:10;12.33;;;5.93;;
8640;SDS011;4358;42.100;25.222;2022-11-15T14:45:38;18.87;;;6.43;;
8640;SDS011;4358;42.100;25.222;2022-11-15T14:48:05;9.30;;;5.40;;
8640;SDS011;4358;42.100;25.222;2022-11-15T14:50:32;9.00;;;5.67;;
8640;SDS011;4358;42.100;25.222;2022-11-15T14:53:01;14.03;;;6.67;;
8640;SDS011;4358;42.100;25.222;2022-11-15T14:55:29;11.43;;;6.70;;
8640;SDS011;4358;42.100;25.222;2022-11-15T14:58:01;10.00;;;6.47;;
8640;SDS011;4358;42.100;25.222;2022-11-15T15:00:29;12.00;;;6.40;;
8640;SDS011;4358;42.100;25.222;2022-11-15T15:02:56;11.87;;;6.43;;
8640;SDS011;4358;42.100;25.222;2022-11-15T15:05:23;10.13;;;6.13;;
8640;SDS011;4358;42.100;25.222;2022-11-15T15:07:52;12.83;;;6.80;;
8640;SDS011;4358;42.100;25.222;2022-11-15T15:10:19;11.63;;;6.20;;
8640;SDS011;4358;42.100;25.222;2022-11-15T15:12:46;14.53;;;7.30;;
8640;SDS011;4358;42.100;25.222;2022-11-15T15:15:15;11.10;;;6.37;;
8640;SDS011;4358;42.100;25.222;2022-11-15T15:17:44;11.03;;;6.63;;
8640;SDS011;4358;42.100;25.222;2022-11-15T15:20:11;11.43;;;6.07;;
8640;SDS011;4358;42.100;25.222;2022-11-15T15:22:38;11.47;;;5.83;;
8640;SDS011;4358;42.100;25.222;2022-11-15T15:25:19;10.37;;;5.00;;
8640;SDS011;4358;42.100;25.222;2022-11-15T15:27:48;9.37;;;5.33;;
8640;SDS011;4358;42.100;25.222;2022-11-15T15:30:16;9.50;;;5.33;;
8640;SDS011;4358;42.100;25.222;2022-11-15T15:32:43;7.20;;;4.37;;
8640;SDS011;4358;42.100;25.222;2022-11-15T15:35:11;12.97;;;5.70;;
8640;SDS011;4358;42.100;25.222;2022-11-15T15:37:39;9.47;;;5.27;;
8640;SDS011;4358;42.100;25.222;2022-11-15T15:40:10;14.27;;;5.87;;
8640;SDS011;4358;42.100;25.222;2022-11-15T15:42:39;14.33;;;5.67;;
8640;SDS011;4358;42.100;25.222;2022-11-15T15:45:07;11.73;;;5.83;;